Time;durP1;ratioP1;P1;durP2;ratioP2;P2;SDS_P1;SDS_P2;PMS_P1;PMS_P2;Temp;Humidity;BMP_temperature;BMP_pressure;BME280_temperature;BME280_humidity;BME280_pressure;Samples;Min_cycle;Max_cycle;Signal;HPM_P1;HPM_P2
2021/05/20 00:00:22;;;;;;;3.40;2.40;;;;;;;19.22;78.39;97778.78;5052023;28;20251;-67
2021/05/20 00:02:48;;;;;;;3.17;2.20;;;;;;;19.22;78.47;97772.84;5051313;28;20221;-67
2021/05/20 00:05:18;;;;;;;2.60;2.13;;;;;;;19.23;78.26;97777.13;5050148;28;20228;-68
2021/05/20 00:07:45;;;;;;;4.03;2.17;;;;;;;19.21;78.25;97774.50;5047031;28;20687;-67
2021/05/20 00:10:12;;;;;;;2.30;2.10;;;;;;;19.22;78.30;97772.84;5050740;28;20258;-67
2021/05/20 00:12:39;;;;;;;5.00;2.10;;;;;;;18.64;78.01;97672.72;5050895;28;20255;-67
2021/05/20 00:15:07;;;;;;;3.70;2.00;;;;;;;14.91;77.79;97074.31;5051741;28;20270;-67
2021/05/20 00:17:33;;;;;;;3.20;2.30;;;;;;;15.56;77.70;97280.88;5044577;28;20839;-67
2021/05/20 00:20:00;;;;;;;3.40;2.30;;;;;;;19.22;78.31;97778.78;5051168;28;20284;-67
2021/05/20 00:22:29;;;;;;;2.57;2.20;;;;;;;19.23;78.06;97784.78;5047830;28;20756;-67
2021/05/20 00:24:59;;;;;;;3.10;2.20;;;;;;;19.23;78.11;97779.69;5050295;28;20591;-67
2021/05/20 00:27:26;;;;;;;2.50;2.10;;;;;;;19.05;77.82;97751.75;5045807;28;20193;-68
2021/05/20 00:29:54;;;;;;;5.20;2.27;;;;;;;18.01;77.79;97570.69;5049687;28;20201;-67
2021/05/20 00:32:21;;;;;;;2.50;1.97;;;;;;;19.22;77.76;97776.25;5047530;28;20263;-67
2021/05/20 00:34:48;;;;;;;2.63;2.10;;;;;;;19.22;78.17;97777.94;5048982;28;20634;-68
2021/05/20 00:37:15;;;;;;;3.10;2.07;;;;;;;19.22;78.57;97777.94;5049938;28;20197;-67
2021/05/20 00:39:41;;;;;;;2.60;2.37;;;;;;;19.22;78.52;97783.03;5051132;28;20193;-68
2021/05/20 00:42:11;;;;;;;3.57;2.30;;;;;;;19.21;78.76;97789.81;5050615;28;20221;-67
2021/05/20 00:44:54;;;;;;;2.37;2.10;;;;;;;19.21;78.54;97784.72;5045189;28;20197;-67
2021/05/20 00:47:21;;;;;;;2.93;2.10;;;;;;;18.74;78.49;97702.84;5047710;28;20231;-67
2021/05/20 00:49:48;;;;;;;2.70;2.07;;;;;;;19.20;78.36;97782.97;5051054;28;20197;-67
2021/05/20 00:52:15;;;;;;;3.00;2.20;;;;;;;19.21;78.40;97782.16;5048414;28;20294;-67
2021/05/20 00:54:41;;;;;;;2.17;1.97;;;;;;;19.21;78.96;97777.06;5049877;28;20197;-67
2021/05/20 00:57:08;;;;;;;2.73;2.30;;;;;;;19.22;78.38;97798.34;5048224;28;20201;-67
2021/05/20 00:59:35;;;;;;;2.13;1.80;;;;;;;16.08;77.60;97241.13;5032156;28;20558;-67
2021/05/20 01:02:02;;;;;;;1.87;1.70;;;;;;;15.36;77.89;97111.00;5046292;28;20244;-68
2021/05/20 01:04:28;;;;;;;2.33;1.83;;;;;;;19.20;78.58;97779.53;5048064;28;20205;-67
2021/05/20 01:06:55;;;;;;;2.40;2.03;;;;;;;19.20;78.46;97775.34;5044052;28;20557;-67
2021/05/20 01:09:21;;;;;;;5.87;2.37;;;;;;;19.20;78.43;97780.44;5042218;28;20197;-68
2021/05/20 01:11:48;;;;;;;2.73;1.90;;;;;;;19.20;78.17;97774.44;5050041;28;20576;-67
2021/05/20 01:14:15;;;;;;;2.17;1.97;;;;;;;19.20;78.71;97767.69;5046963;28;20284;-67
2021/05/20 01:16:41;;;;;;;2.90;2.10;;;;;;;19.20;79.40;97771.91;5046595;28;20201;-67
2021/05/20 01:19:08;;;;;;;2.03;1.83;;;;;;;19.20;78.78;97774.44;5048294;28;20674;-68
2021/05/20 01:21:35;;;;;;;2.47;2.07;;;;;;;18.80;78.41;97698.03;5048474;28;20193;-67
2021/05/20 01:24:02;;;;;;;1.90;1.80;;;;;;;18.54;78.56;97657.00;5049171;28;20275;-67
2021/05/20 01:26:29;;;;;;;2.60;2.20;;;;;;;19.20;78.68;97775.34;5048655;28;20499;-67
2021/05/20 01:28:55;;;;;;;2.00;1.80;;;;;;;19.20;78.79;97774.44;5047215;28;20193;-67
2021/05/20 01:31:22;;;;;;;1.90;1.80;;;;;;;18.97;78.65;97729.28;5047061;28;20266;-67
2021/05/20 01:33:49;;;;;;;2.13;1.93;;;;;;;19.19;78.77;97780.38;5048781;28;20225;-67
2021/05/20 01:36:23;;;;;;;2.73;2.00;;;;;;;19.19;78.95;97786.31;5048324;28;20318;-67
2021/05/20 01:38:50;;;;;;;2.40;2.07;;;;;;;14.70;78.48;97002.47;5049425;28;20209;-67
2021/05/20 01:41:17;;;;;;;1.97;1.77;;;;;;;19.20;78.43;97780.44;5041825;28;20229;-68
2021/05/20 01:43:43;;;;;;;2.10;1.90;;;;;;;19.20;78.99;97775.34;5050120;28;20217;-67
2021/05/20 01:46:11;;;;;;;2.17;1.97;;;;;;;19.22;78.69;97777.94;5049413;28;20232;-67
2021/05/20 01:48:39;;;;;;;2.20;2.00;;;;;;;19.22;78.57;97780.50;5048177;28;20231;-67
2021/05/20 01:51:08;;;;;;;2.90;2.13;;;;;;;19.23;78.40;97783.09;5049355;28;20323;-67
2021/05/20 01:53:36;;;;;;;1.70;1.60;;;;;;;19.24;78.44;97778.84;5049374;28;20217;-68
2021/05/20 01:56:03;;;;;;;3.33;2.13;;;;;;;18.16;78.39;97596.78;5049673;28;21019;-67
2021/05/20 01:58:30;;;;;;;2.63;1.80;;;;;;;18.74;77.91;97692.66;5047871;28;20594;-67
2021/05/20 02:00:57;;;;;;;2.17;1.83;;;;;;;19.27;78.25;97786.69;5043527;28;20247;-68
2021/05/20 02:03:24;;;;;;;1.87;1.73;;;;;;;19.28;78.53;97788.44;5043020;28;20229;-68
2021/05/20 02:05:52;;;;;;;2.00;1.80;;;;;;;19.28;78.17;97786.75;5048043;28;20215;-67
2021/05/20 02:08:19;;;;;;;2.63;2.00;;;;;;;19.29;78.21;97791.03;5046498;28;20200;-67
2021/05/20 02:10:45;;;;;;;2.10;1.90;;;;;;;19.32;78.11;97795.38;5044196;28;20233;-68
2021/05/20 02:13:12;;;;;;;2.53;1.97;;;;;;;19.32;77.84;97788.63;5047678;28;20249;-68
2021/05/20 02:15:39;;;;;;;1.90;1.80;;;;;;;19.33;77.72;97789.50;5047769;28;20206;-67
2021/05/20 02:18:05;;;;;;;1.70;1.60;;;;;;;18.89;77.86;97710.28;5048452;28;20255;-67
2021/05/20 02:20:33;;;;;;;2.27;1.90;;;;;;;19.35;77.73;97788.75;5043345;28;20204;-67
2021/05/20 02:22:59;;;;;;;2.20;2.00;;;;;;;19.36;77.58;97793.03;5048468;28;20216;-67
2021/05/20 02:25:26;;;;;;;2.13;1.80;;;;;;;19.00;77.49;97724.34;5049621;28;20229;-67
2021/05/20 02:27:53;;;;;;;2.10;1.90;;;;;;;19.36;77.46;97785.38;5043839;28;20198;-67
2021/05/20 02:30:19;;;;;;;1.73;1.63;;;;;;;19.38;77.58;97785.44;5045025;28;20201;-67
2021/05/20 02:32:46;;;;;;;1.97;1.73;;;;;;;19.39;77.63;97792.31;5045369;28;20221;-67
2021/05/20 02:35:13;;;;;;;2.10;1.90;;;;;;;19.41;77.20;97783.03;5049341;28;20201;-68
2021/05/20 02:37:39;;;;;;;2.07;1.87;;;;;;;19.42;77.32;97789.88;5051395;28;20270;-67
2021/05/20 02:40:07;;;;;;;1.93;1.70;;;;;;;18.88;77.11;97691.59;5049787;28;20283;-67
2021/05/20 02:42:34;;;;;;;1.90;1.70;;;;;;;15.08;76.54;97035.50;5051235;28;20307;-67
2021/05/20 02:45:01;;;;;;;1.80;1.70;;;;;;;16.23;76.70;97305.19;5053198;28;20640;-67
2021/05/20 02:47:27;;;;;;;3.00;1.90;;;;;;;19.43;76.59;97789.06;5050641;28;20264;-67
2021/05/20 02:49:54;;;;;;;1.77;1.67;;;;;;;19.44;76.92;97783.16;5049205;28;20578;-68
2021/05/20 02:52:20;;;;;;;2.00;1.83;;;;;;;19.45;76.48;97784.91;5048565;28;20251;-67
2021/05/20 02:54:47;;;;;;;1.70;1.60;;;;;;;19.45;77.05;97783.22;5049205;28;20299;-68
2021/05/20 02:57:14;;;;;;;2.17;1.80;;;;;;;19.45;76.87;97787.47;5052250;28;20247;-68
2021/05/20 02:59:41;;;;;;;2.10;1.90;;;;;;;19.46;76.58;97789.19;5051483;28;20200;-67
2021/05/20 03:02:07;;;;;;;1.93;1.50;;;;;;;19.46;76.49;97786.66;5052493;28;20290;-67
2021/05/20 03:04:34;;;;;;;1.80;1.70;;;;;;;19.05;76.32;97718.66;5048838;28;20700;-67
2021/05/20 03:07:01;;;;;;;1.70;1.60;;;;;;;19.46;76.37;97790.09;5052649;28;20246;-68
2021/05/20 03:09:28;;;;;;;1.60;1.50;;;;;;;18.63;76.18;97650.63;5045041;28;20196;-68
2021/05/20 03:11:56;;;;;;;2.00;1.87;;;;;;;19.48;76.18;97792.69;5051986;28;20217;-67
2021/05/20 03:14:22;;;;;;;1.90;1.70;;;;;;;18.51;76.28;97697.59;5048661;28;20197;-67
2021/05/20 03:16:49;;;;;;;1.93;1.83;;;;;;;19.49;76.38;97804.63;5050966;28;20209;-67
2021/05/20 03:19:16;;;;;;;1.87;1.77;;;;;;;19.49;76.03;97800.41;5047357;28;20193;-68
2021/05/20 03:21:43;;;;;;;2.20;1.80;;;;;;;19.49;76.00;97796.97;5047997;28;20201;-67
2021/05/20 03:24:11;;;;;;;1.87;1.77;;;;;;;17.97;76.00;97574.78;5049677;28;20263;-68
2021/05/20 03:26:38;;;;;;;1.80;1.70;;;;;;;19.49;76.10;97791.88;5052377;28;20193;-67
2021/05/20 03:29:05;;;;;;;1.60;1.50;;;;;;;19.50;76.05;97797.03;5051221;28;20253;-67
2021/05/20 03:31:32;;;;;;;1.97;1.60;;;;;;;19.50;76.13;97798.69;5046752;28;20258;-67
2021/05/20 03:33:58;;;;;;;1.80;1.70;;;;;;;18.99;76.06;97709.88;5051206;28;20228;-68
2021/05/20 03:36:25;;;;;;;4.00;2.10;;;;;;;19.49;75.91;97795.31;5051409;28;20704;-67
2021/05/20 03:38:52;;;;;;;1.93;1.70;;;;;;;19.32;75.92;97765.69;5048253;28;20197;-67
2021/05/20 03:41:18;;;;;;;1.70;1.60;;;;;;;17.00;75.78;97364.56;5045667;28;20197;-67
2021/05/20 03:43:45;;;;;;;1.70;1.60;;;;;;;19.51;75.80;97798.75;5051349;28;20247;-67
2021/05/20 03:46:27;;;;;;;1.97;1.83;;;;;;;19.51;75.72;97797.91;5049979;28;20196;-67
2021/05/20 03:48:54;;;;;;;2.10;1.90;;;;;;;19.53;75.61;97806.47;5049837;28;20197;-67
2021/05/20 03:51:20;;;;;;;2.00;1.57;;;;;;;19.51;75.55;97808.97;5048772;28;20628;-67
2021/05/20 03:53:47;;;;;;;2.23;2.03;;;;;;;18.23;75.63;97648.00;5049577;28;20221;-66
2021/05/20 03:56:14;;;;;;;1.77;1.67;;;;;;;18.59;75.71;97653.00;5051601;28;20193;-67
2021/05/20 03:58:41;;;;;;;1.63;1.53;;;;;;;16.43;75.10;97294.28;5051020;28;20231;-67
2021/05/20 04:01:08;;;;;;;2.37;1.70;;;;;;;19.52;75.56;97812.41;5048785;28;20224;-67
2021/05/20 04:03:34;;;;;;;2.03;1.83;;;;;;;19.53;75.70;97809.03;5045375;28;20287;-66
2021/05/20 04:06:04;;;;;;;1.73;1.60;;;;;;;19.53;75.53;97825.19;5045337;28;20236;-72
2021/05/20 04:08:34;;;;;;;2.63;1.63;;;;;;;19.54;75.48;97823.53;5048931;28;20205;-66
2021/05/20 04:11:01;;;;;;;1.60;1.50;;;;;;;19.54;75.40;97826.94;5044835;28;20231;-66
2021/05/20 04:13:45;;;;;;;1.60;1.50;;;;;;;19.54;75.22;97834.59;5046249;28;20248;-67
2021/05/20 04:16:12;;;;;;;1.50;1.40;;;;;;;19.55;75.25;97841.44;5048378;28;20197;-69
2021/05/20 04:18:39;;;;;;;2.83;1.83;;;;;;;19.55;75.08;97827.81;5031839;28;20659;-68
2021/05/20 04:21:06;;;;;;;1.60;1.50;;;;;;;19.55;75.13;97838.00;5049308;28;20262;-67
2021/05/20 04:23:33;;;;;;;1.77;1.67;;;;;;;19.54;75.15;97844.78;5048876;28;20216;-68
2021/05/20 04:25:59;;;;;;;2.90;1.53;;;;;;;19.35;74.92;97818.44;5047975;28;20296;-69
2021/05/20 04:28:26;;;;;;;1.80;1.70;;;;;;;19.53;75.25;97843.03;5045496;28;20292;-67
2021/05/20 04:30:53;;;;;;;3.07;1.77;;;;;;;19.55;75.07;97843.13;5046580;28;20247;-68
2021/05/20 04:33:21;;;;;;;2.00;1.70;;;;;;;19.54;75.00;97846.47;5042147;28;20255;-67
2021/05/20 04:35:47;;;;;;;1.87;1.70;;;;;;;19.55;74.90;97845.66;5050430;28;20196;-67
2021/05/20 04:38:14;;;;;;;2.37;1.83;;;;;;;19.54;74.99;97852.44;5048154;28;20201;-67
2021/05/20 04:40:41;;;;;;;1.73;1.50;;;;;;;19.54;75.23;97854.13;5046102;28;20208;-67
2021/05/20 04:43:07;;;;;;;2.60;1.60;;;;;;;19.54;74.83;97854.97;5050784;28;20213;-67
2021/05/20 04:45:35;;;;;;;3.30;1.90;;;;;;;19.34;74.90;97820.16;5046612;28;20201;-67
2021/05/20 04:48:02;;;;;;;2.13;1.80;;;;;;;19.54;74.89;97856.69;5045066;28;20193;-67
2021/05/20 04:50:29;;;;;;;2.40;1.60;;;;;;;19.34;74.95;97821.81;5044160;28;20201;-67
2021/05/20 04:52:55;;;;;;;3.83;1.77;;;;;;;19.54;74.92;97856.69;5047792;28;20469;-67
2021/05/20 04:55:22;;;;;;;6.27;1.80;;;;;;;19.54;75.04;97864.31;5051056;28;20201;-66
2021/05/20 04:57:49;;;;;;;2.83;1.73;;;;;;;19.53;75.17;97868.53;5050219;28;20193;-67
2021/05/20 05:00:16;;;;;;;3.40;1.80;;;;;;;19.53;75.01;97871.09;5049991;28;20228;-67
2021/05/20 05:02:42;;;;;;;3.27;1.53;;;;;;;19.52;74.74;97873.56;5070493;22;20251;-66
2021/05/20 05:05:09;;;;;;;2.33;1.67;;;;;;;19.51;75.11;97866.75;5069056;28;20250;-67
2021/05/20 05:07:36;;;;;;;2.10;1.70;;;;;;;16.99;75.38;97436.47;5069409;28;20224;-68
2021/05/20 05:10:03;;;;;;;2.20;1.70;;;;;;;19.52;75.09;97881.22;5067932;28;20253;-67
2021/05/20 05:12:30;;;;;;;1.73;1.53;;;;;;;19.18;75.20;97820.25;5067389;28;20220;-69
2021/05/20 05:14:57;;;;;;;3.97;2.00;;;;;;;19.49;75.31;97884.53;5047995;28;20658;-67
2021/05/20 05:17:24;;;;;;;2.27;1.63;;;;;;;19.46;75.47;97881.84;5049131;28;20232;-64
2021/05/20 05:19:52;;;;;;;4.63;1.80;;;;;;;16.53;75.66;97442.72;5049183;28;20200;-67
2021/05/20 05:22:18;;;;;;;4.53;1.90;;;;;;;19.46;76.29;97886.94;5046307;28;20251;-69
2021/05/20 05:24:47;;;;;;;4.90;1.83;;;;;;;16.18;76.14;97390.31;5049784;28;20197;-67
2021/05/20 05:27:15;;;;;;;4.20;1.70;;;;;;;19.45;76.47;97887.72;5049615;28;20654;-65
2021/05/20 05:29:43;;;;;;;3.77;1.67;;;;;;;19.45;76.35;97886.88;5049021;28;20728;-67
2021/05/20 05:32:10;;;;;;;4.27;2.00;;;;;;;15.60;76.17;97314.81;5050241;28;20205;-67
2021/05/20 05:34:37;;;;;;;4.13;2.00;;;;;;;19.45;76.38;97897.06;5044111;28;20197;-67
2021/05/20 05:37:03;;;;;;;2.07;1.87;;;;;;;19.43;76.24;97894.44;5047716;28;20197;-68
2021/05/20 05:39:30;;;;;;;3.27;1.80;;;;;;;19.25;76.33;97862.16;5050131;28;20211;-67
2021/05/20 05:41:57;;;;;;;4.83;2.23;;;;;;;17.77;76.15;97606.06;5049522;28;20201;-66
2021/05/20 05:44:24;;;;;;;3.03;1.67;;;;;;;19.42;76.28;97895.25;5043209;28;20213;-66
2021/05/20 05:46:50;;;;;;;2.40;1.90;;;;;;;19.43;76.26;97904.66;5049800;28;20270;-68
2021/05/20 05:49:21;;;;;;;3.87;1.80;;;;;;;18.34;76.33;97721.38;5049982;28;20542;-67
2021/05/20 05:51:51;;;;;;;5.43;2.10;;;;;;;19.00;76.38;97836.41;5048614;28;20197;-67
2021/05/20 05:54:18;;;;;;;1.90;1.70;;;;;;;19.43;76.55;97917.41;5047011;28;20224;-67
2021/05/20 05:56:44;;;;;;;2.90;1.93;;;;;;;18.92;76.55;97830.97;5048237;28;20192;-66
2021/05/20 05:59:14;;;;;;;2.43;1.93;;;;;;;14.79;76.61;97131.88;5048314;28;20207;-65
2021/05/20 06:01:40;;;;;;;5.50;1.90;;;;;;;17.55;76.81;97645.66;5047368;28;20540;-67
2021/05/20 06:04:08;;;;;;;2.80;1.90;;;;;;;19.07;76.79;97852.03;5046830;28;20228;-68
2021/05/20 06:06:36;;;;;;;2.57;1.90;;;;;;;19.43;77.07;97919.94;5048683;28;20204;-65
2021/05/20 06:09:06;;;;;;;2.90;1.87;;;;;;;19.22;76.73;97879.88;5048050;28;20201;-67
2021/05/20 06:11:33;;;;;;;2.53;1.90;;;;;;;18.53;76.71;97762.16;5049010;28;20654;-67
2021/05/20 06:14:03;;;;;;;1.90;1.70;;;;;;;18.32;76.65;97728.09;5031520;28;20264;-68
2021/05/20 06:16:30;;;;;;;2.00;1.80;;;;;;;19.41;76.82;97926.63;5047869;28;20681;-67
2021/05/20 06:18:57;;;;;;;2.70;1.80;;;;;;;18.90;77.05;97824.97;5049432;28;20704;-67
2021/05/20 06:21:23;;;;;;;2.20;2.00;;;;;;;19.39;77.78;97915.50;5049223;28;20193;-66
2021/05/20 06:23:51;;;;;;;2.40;1.90;;;;;;;19.23;77.97;97886.69;5049224;28;20221;-68
2021/05/20 06:26:18;;;;;;;2.00;1.90;;;;;;;19.03;77.79;97862.00;5041436;28;20201;-67
2021/05/20 06:28:44;;;;;;;2.13;1.93;;;;;;;19.39;77.34;97925.69;5049446;28;20246;-67
2021/05/20 06:31:11;;;;;;;2.87;2.00;;;;;;;18.51;77.78;97779.91;5049109;28;20239;-67
2021/05/20 06:33:38;;;;;;;2.27;1.90;;;;;;;15.85;77.76;97310.13;5048003;28;20220;-67
2021/05/20 06:36:05;;;;;;;3.27;2.07;;;;;;;15.03;77.12;97176.09;5047838;28;20246;-64
2021/05/20 06:38:31;;;;;;;2.63;1.83;;;;;;;19.38;77.60;97930.72;5047990;28;20208;-67
2021/05/20 06:41:00;;;;;;;2.27;2.03;;;;;;;18.86;77.57;97845.97;5048569;28;20228;-67
2021/05/20 06:43:27;;;;;;;1.70;1.60;;;;;;;19.38;77.49;97935.81;5047279;28;20208;-66
2021/05/20 06:45:54;;;;;;;2.70;1.90;;;;;;;15.70;76.88;97365.13;5049070;28;20223;-66
2021/05/20 06:48:20;;;;;;;2.30;1.93;;;;;;;19.37;77.29;97940.06;5047191;28;20732;-67
2021/05/20 06:50:47;;;;;;;2.63;1.70;;;;;;;19.38;77.72;97938.38;5048990;28;20193;-67
2021/05/20 06:53:14;;;;;;;2.20;2.00;;;;;;;19.38;77.98;97938.38;5048972;28;20221;-66
2021/05/20 06:55:40;;;;;;;3.13;2.10;;;;;;;19.37;77.49;97942.59;5048997;28;20677;-68
2021/05/20 07:00:37;;;;;;;2.70;1.80;;;;;;;19.38;77.66;97943.47;5048817;28;20209;-68
2021/05/20 07:03:10;;;;;;;2.13;1.93;;;;;;;19.36;77.69;97942.53;5048318;28;20221;-68
2021/05/20 07:05:36;;;;;;;2.07;1.80;;;;;;;18.49;77.33;97851.88;5047637;28;20682;-69
2021/05/20 07:08:03;;;;;;;1.70;1.60;;;;;;;19.01;77.72;97881.47;5046974;28;20210;-69
2021/05/20 07:10:30;;;;;;;2.80;1.73;;;;;;;19.19;77.96;97921.34;5047067;28;20201;-68
2021/05/20 07:12:59;;;;;;;2.80;1.70;;;;;;;19.36;78.01;97947.63;5048477;28;20273;-68
2021/05/20 07:15:27;;;;;;;3.47;2.23;;;;;;;18.16;78.02;97740.13;5047175;28;20558;-68
2021/05/20 07:17:54;;;;;;;3.27;1.80;;;;;;;19.18;78.20;97924.72;5047032;28;20671;-66
2021/05/20 07:20:21;;;;;;;2.80;1.80;;;;;;;19.35;78.22;97954.41;5048841;28;20243;-68
2021/05/20 07:22:47;;;;;;;2.00;1.80;;;;;;;19.34;77.95;97956.88;5048802;28;20227;-68
2021/05/20 07:25:14;;;;;;;2.67;2.00;;;;;;;18.95;77.79;97887.13;5051949;28;20193;-68
2021/05/20 07:27:41;;;;;;;2.67;1.90;;;;;;;18.83;77.56;97922.22;5051531;28;20612;-67
2021/05/20 07:30:08;;;;;;;2.93;2.10;;;;;;;19.34;77.72;97952.66;5033330;28;20255;-68
2021/05/20 07:32:34;;;;;;;2.23;1.73;;;;;;;19.36;77.89;97958.69;5051708;28;20255;-67
2021/05/20 07:35:05;;;;;;;2.33;2.00;;;;;;;19.35;77.95;97967.16;5034743;28;20224;-68
2021/05/20 07:37:32;;;;;;;2.70;1.90;;;;;;;19.16;77.78;97922.91;5051667;28;20280;-68
2021/05/20 07:39:58;;;;;;;2.10;1.90;;;;;;;19.32;77.39;97950.84;5051916;28;20209;-69
2021/05/20 07:42:25;;;;;;;1.80;1.67;;;;;;;19.34;78.01;97964.53;5051760;28;20244;-68
2021/05/20 07:44:54;;;;;;;2.20;2.00;;;;;;;19.36;77.48;97960.38;5050551;28;20197;-68
2021/05/20 07:47:22;;;;;;;1.97;1.73;;;;;;;18.97;77.36;97887.19;5051633;28;20201;-68
2021/05/20 07:49:50;;;;;;;2.43;1.83;;;;;;;19.33;77.49;97950.91;5051852;28;20201;-69
2021/05/20 07:52:18;;;;;;;2.00;1.80;;;;;;;19.35;77.65;97959.50;5049161;28;20662;-68
2021/05/20 07:54:45;;;;;;;2.43;1.73;;;;;;;19.16;77.68;97923.75;5051423;28;20243;-67
2021/05/20 07:57:11;;;;;;;1.73;1.60;;;;;;;19.18;78.12;98024.06;5050059;28;20213;-68
2021/05/20 07:59:38;;;;;;;2.03;1.83;;;;;;;19.20;78.18;97932.41;5052069;28;20193;-68
2021/05/20 08:04:32;;;;;;;1.90;1.60;;;;;;;19.05;78.12;97908.81;5051536;28;20287;-68
2021/05/20 08:09:49;;;;;;;2.70;1.90;;;;;;;19.33;78.27;97952.59;5051413;28;20193;-65
2021/05/20 08:12:16;;;;;;;1.63;1.53;;;;;;;16.04;77.83;97383.69;5050845;28;20228;-68
2021/05/20 08:14:42;;;;;;;2.17;1.77;;;;;;;19.33;78.49;97960.25;5051735;28;20711;-68
2021/05/20 08:17:09;;;;;;;2.03;1.67;;;;;;;19.14;77.74;97927.06;5050711;28;20288;-68
2021/05/20 08:19:36;;;;;;;2.33;1.93;;;;;;;19.32;78.08;97954.28;5045981;28;20661;-68
2021/05/20 08:22:02;;;;;;;2.17;1.93;;;;;;;19.27;77.58;97952.34;5049969;28;20200;-68
2021/05/20 08:24:29;;;;;;;1.70;1.60;;;;;;;19.33;78.06;97962.78;5033499;28;20295;-68
2021/05/20 08:26:56;;;;;;;2.20;1.90;;;;;;;19.33;78.14;97966.19;5050890;28;20193;-68
2021/05/20 08:29:22;;;;;;;2.00;1.63;;;;;;;19.34;77.79;97961.97;5050948;28;20227;-68
2021/05/20 08:31:49;;;;;;;2.10;1.70;;;;;;;19.16;78.10;97926.31;5051176;28;20204;-68
2021/05/20 08:34:15;;;;;;;1.90;1.80;;;;;;;19.34;77.65;97961.97;5048574;28;20282;-68
2021/05/20 08:36:42;;;;;;;1.67;1.57;;;;;;;19.33;77.84;97957.69;5049643;28;20193;-68
2021/05/20 08:39:08;;;;;;;2.03;1.57;;;;;;;19.03;77.67;97906.19;5051300;28;20201;-68
2021/05/20 08:41:35;;;;;;;2.83;1.70;;;;;;;19.34;77.88;97959.44;5027247;28;20228;-69
2021/05/20 08:44:12;;;;;;;1.93;1.80;;;;;;;19.14;77.93;97920.28;5050632;28;20247;-68
2021/05/20 08:46:39;;;;;;;2.20;1.77;;;;;;;19.33;78.15;97950.06;5047830;28;20197;-69
2021/05/20 08:49:14;;;;;;;2.03;1.60;;;;;;;19.32;78.38;97948.28;5049389;28;20213;-67
2021/05/20 08:51:44;;;;;;;2.43;1.60;;;;;;;19.34;78.75;97959.44;5048505;28;20197;-68
2021/05/20 08:54:12;;;;;;;3.07;1.60;;;;;;;18.87;78.87;97874.88;5049320;28;20298;-69
2021/05/20 08:56:44;;;;;;;5.00;1.90;;;;;;;19.34;79.12;97961.97;5049094;28;20251;-68
2021/05/20 08:59:11;;;;;;;2.80;1.83;;;;;;;19.35;78.22;97967.16;5049148;28;20205;-69
2021/05/20 09:01:39;;;;;;;1.70;1.60;;;;;;;19.23;78.19;97948.72;5049168;28;20239;-68
2021/05/20 09:04:06;;;;;;;2.33;1.60;;;;;;;19.35;78.57;97969.69;5048798;28;20790;-68
2021/05/20 09:06:45;;;;;;;7.10;1.70;;;;;;;19.36;78.75;97979.06;5048525;28;20242;-68
2021/05/20 09:09:15;;;;;;;6.07;1.80;;;;;;;19.37;78.79;97967.22;5048986;28;20561;-68
2021/05/20 09:11:47;;;;;;;3.27;1.97;;;;;;;19.26;78.32;97935.25;5048981;28;20573;-69
2021/05/20 09:14:13;;;;;;;3.07;1.70;;;;;;;19.37;78.60;97957.91;5048815;28;20252;-69
2021/05/20 09:16:40;;;;;;;2.10;1.60;;;;;;;19.37;78.47;97952.81;5032155;28;20262;-69
2021/05/20 09:19:20;;;;;;;1.63;1.53;;;;;;;19.31;78.51;97951.66;5049921;28;20658;-68
2021/05/20 09:22:06;;;;;;;10.63;1.77;;;;;;;19.22;78.84;97930.81;5043720;28;20239;-68
2021/05/20 09:24:48;;;;;;;3.27;1.80;;;;;;;19.38;79.17;97953.66;5040455;28;20702;-68
2021/05/20 09:27:37;;;;;;;2.33;1.87;;;;;;;18.14;78.66;97731.53;5049302;28;20197;-66
2021/05/20 09:30:16;;;;;;;3.27;1.63;;;;;;;19.39;78.81;97940.13;5048376;28;20193;-66
2021/05/20 09:32:54;;;;;;;2.07;1.50;;;;;;;19.41;78.79;97948.69;5049680;28;20224;-66
2021/05/20 09:35:28;;;;;;;2.03;1.80;;;;;;;19.40;78.73;97944.41;5047346;28;20263;-68
2021/05/20 09:38:12;;;;;;;3.23;1.70;;;;;;;19.25;78.66;97915.66;5047025;28;20646;-68
2021/05/20 09:40:42;;;;;;;2.33;1.63;;;;;;;18.89;78.57;97853.75;5046079;28;20277;-69
2021/05/20 09:43:20;;;;;;;2.73;1.43;;;;;;;19.39;78.71;97930.78;5048546;28;20276;-69
2021/05/20 09:45:48;;;;;;;1.70;1.60;;;;;;;18.17;78.69;97721.50;5045789;28;20608;-68
2021/05/20 09:48:15;;;;;;;5.00;2.00;;;;;;;19.22;79.49;97900.25;5047814;28;20225;-67
2021/05/20 09:50:47;;;;;;;2.03;1.60;;;;;;;19.40;79.57;97934.22;5049831;28;20197;-68
2021/05/20 09:53:24;;;;;;;1.50;1.40;;;;;;;19.39;79.33;97925.69;5049061;28;20263;-67
2021/05/20 09:55:57;;;;;;;1.70;1.53;;;;;;;19.23;79.27;97899.44;5049890;28;20615;-69
2021/05/20 09:58:28;;;;;;;2.17;1.70;;;;;;;19.23;79.43;97900.31;5049333;28;20197;-66
2021/05/20 10:00:56;;;;;;;2.57;1.50;;;;;;;19.41;79.13;97930.84;5037699;28;20228;-68
2021/05/20 10:03:23;;;;;;;2.63;1.50;;;;;;;19.41;79.22;97923.22;5047504;28;20730;-67
2021/05/20 10:06:00;;;;;;;1.30;1.20;;;;;;;19.42;79.14;97919.88;5049671;28;20204;-68
2021/05/20 10:08:29;;;;;;;2.90;1.60;;;;;;;19.42;79.19;97914.78;5047709;28;20723;-69
2021/05/20 10:10:57;;;;;;;2.63;1.67;;;;;;;18.71;78.95;97786.72;5048327;28;20205;-68
2021/05/20 10:13:25;;;;;;;1.63;1.53;;;;;;;19.20;79.21;97876.38;5045756;28;20251;-68
2021/05/20 10:15:52;;;;;;;2.33;1.40;;;;;;;19.10;78.97;97851.31;5048956;28;20593;-68
2021/05/20 10:18:20;;;;;;;2.70;1.67;;;;;;;18.17;79.21;97690.97;5048242;28;20633;-67
2021/05/20 10:20:49;;;;;;;5.73;2.00;;;;;;;19.11;79.11;97842.84;5047980;28;20271;-68
2021/05/20 10:23:17;;;;;;;4.93;1.60;;;;;;;19.24;79.53;97861.28;5040146;28;20240;-68
2021/05/20 10:25:44;;;;;;;2.93;1.70;;;;;;;16.81;78.97;97439.00;5029761;28;20629;-73
2021/05/20 10:28:12;;;;;;;9.13;1.97;;;;;;;18.87;79.41;97786.63;5031677;28;20209;-67
2021/05/20 10:30:41;;;;;;;3.67;1.90;;;;;;;16.61;79.22;97508.25;5047624;28;20223;-67
2021/05/20 10:33:08;;;;;;;3.23;1.70;;;;;;;19.38;79.27;97867.88;5048127;28;20224;-67
2021/05/20 10:35:50;;;;;;;7.10;1.73;;;;;;;19.27;79.46;97948.09;5048137;28;20763;-67
2021/05/20 10:38:29;;;;;;;8.00;1.57;;;;;;;19.51;79.14;97899.88;5031371;28;20267;-68
2021/05/20 10:41:09;;;;;;;8.23;2.40;;;;;;;18.35;79.00;97738.41;5045097;28;20192;-67
2021/05/20 10:43:36;;;;;;;5.10;2.03;;;;;;;19.54;78.83;97893.22;5047188;28;20323;-67
2021/05/20 10:46:07;;;;;;;16.70;2.33;;;;;;;18.93;78.57;97791.97;5046644;28;20201;-67
2021/05/20 10:48:37;;;;;;;6.50;1.97;;;;;;;19.30;78.41;97845.44;5046986;28;20247;-67
2021/05/20 10:51:09;;;;;;;7.23;2.23;;;;;;;19.62;78.17;97896.97;5048166;28;20618;-65
2021/05/20 10:53:40;;;;;;;12.93;2.10;;;;;;;19.38;78.68;97852.59;5048558;28;20217;-68
2021/05/20 10:56:22;;;;;;;6.93;2.10;;;;;;;19.62;78.74;97886.78;5049851;28;20200;-67
2021/05/20 10:58:48;;;;;;;5.20;1.90;;;;;;;18.37;79.32;97726.59;5051764;28;20224;-68
2021/05/20 11:01:37;;;;;;;7.27;2.37;;;;;;;19.59;79.44;97886.66;5050720;28;20193;-66
2021/05/20 11:04:07;;;;;;;10.37;2.33;;;;;;;19.23;79.38;97821.31;5053469;28;20287;-66
2021/05/20 11:06:56;;;;;;;7.00;2.30;;;;;;;19.56;79.08;97881.41;5035158;28;20201;-67
2021/05/20 11:09:27;;;;;;;9.33;2.10;;;;;;;19.56;79.07;97878.88;5027367;28;20229;-65
2021/05/20 11:11:54;;;;;;;7.73;2.13;;;;;;;19.55;79.06;97874.59;5040650;28;20201;-65
2021/05/20 11:14:26;;;;;;;9.07;2.20;;;;;;;19.57;78.83;97872.94;5051312;28;20220;-68
2021/05/20 11:16:54;;;;;;;4.63;2.00;;;;;;;18.71;78.75;97710.38;5050771;28;20201;-68
2021/05/20 11:19:24;;;;;;;12.10;2.20;;;;;;;19.60;78.66;97882.44;5052481;28;20205;-67
2021/05/20 11:24:30;;;;;;;5.87;2.13;;;;;;;19.61;78.64;97871.41;5052467;28;20259;-67
2021/05/20 11:26:57;;;;;;;4.00;1.83;;;;;;;19.60;78.48;97878.19;5050632;28;20274;-67
2021/05/20 11:29:25;;;;;;;3.03;2.00;;;;;;;19.61;78.41;97866.31;5052317;28;20219;-65
2021/05/20 11:31:57;;;;;;;5.30;2.13;;;;;;;19.32;78.80;97821.75;5051851;28;20261;-67
2021/05/20 11:34:36;;;;;;;2.77;2.00;;;;;;;19.61;78.38;97872.28;5049369;28;20244;-66
2021/05/20 11:37:03;;;;;;;3.83;2.00;;;;;;;19.55;77.61;97848.22;5051919;28;20228;-67
2021/05/20 11:39:30;;;;;;;5.67;2.40;;;;;;;19.61;78.18;97859.53;5051153;28;20632;-68
2021/05/20 11:41:58;;;;;;;3.67;2.40;;;;;;;19.59;78.10;97852.63;5050904;28;20228;-67
2021/05/20 11:44:26;;;;;;;5.43;2.10;;;;;;;19.61;78.12;97854.44;5050650;28;20208;-67
2021/05/20 11:47:09;;;;;;;4.57;2.20;;;;;;;19.51;78.02;97837.00;5051951;28;20296;-67
2021/05/20 11:49:36;;;;;;;2.33;1.87;;;;;;;19.47;78.31;97827.50;5042562;28;20201;-67